sensor_id;sensor_type;location;lat;lon;timestamp;noise_LAeq;noise_LA_min;noise_LA_max;noise_LA01;noise_LA95
76217;Laerm;65010;50.190;18.930;2023-04-25T00:00:45;36.03;33.68;65.27;;
76217;Laerm;65010;50.190;18.930;2023-04-25T00:03:52;35.23;33.77;56.77;;
76217;Laerm;65010;50.190;18.930;2023-04-25T00:07:00;36.43;33.48;63.07;;
76217;Laerm;65010;50.190;18.930;2023-04-25T00:10:11;36.54;33.83;65.42;;
76217;Laerm;65010;50.190;18.930;2023-04-25T00:13:17;35.45;33.71;61.47;;
76217;Laerm;65010;50.190;18.930;2023-04-25T00:16:24;35.67;33.62;60.41;;
76217;Laerm;65010;50.190;18.930;2023-04-25T00:19:31;44.22;33.75;66.00;;
76217;Laerm;65010;50.190;18.930;2023-04-25T00:22:38;36.66;33.80;63.23;;
76217;Laerm;65010;50.190;18.930;2023-04-25T00:25:48;37.02;34.36;59.78;;
76217;Laerm;65010;50.190;18.930;2023-04-25T00:28:55;37.94;34.22;64.58;;
76217;Laerm;65010;50.190;18.930;2023-04-25T00:32:01;38.71;33.88;67.20;;
76217;Laerm;65010;50.190;18.930;2023-04-25T00:35:09;36.88;33.64;61.43;;
76217;Laerm;65010;50.190;18.930;2023-04-25T00:38:15;35.62;33.76;59.22;;
76217;Laerm;65010;50.190;18.930;2023-04-25T00:41:26;35.25;33.60;54.48;;
76217;Laerm;65010;50.190;18.930;2023-04-25T00:44:35;35.05;33.59;54.63;;
76217;Laerm;65010;50.190;18.930;2023-04-25T00:47:42;35.66;33.36;63.70;;
76217;Laerm;65010;50.190;18.930;2023-04-25T00:50:53;36.05;33.66;65.09;;
76217;Laerm;65010;50.190;18.930;2023-04-25T00:54:00;37.51;33.65;68.94;;
76217;Laerm;65010;50.190;18.930;2023-04-25T00:57:09;35.41;33.64;57.91;;
76217;Laerm;65010;50.190;18.930;2023-04-25T01:00:17;34.85;33.59;47.67;;
76217;Laerm;65010;50.190;18.930;2023-04-25T01:03:24;35.48;33.72;57.29;;
76217;Laerm;65010;50.190;18.930;2023-04-25T01:06:32;34.81;33.74;48.59;;
76217;Laerm;65010;50.190;18.930;2023-04-25T01:09:38;35.84;33.77;64.87;;
76217;Laerm;65010;50.190;18.930;2023-04-25T01:12:47;34.76;33.58;48.09;;
76217;Laerm;65010;50.190;18.930;2023-04-25T01:15:53;34.91;33.65;52.04;;
76217;Laerm;65010;50.190;18.930;2023-04-25T01:19:00;41.00;33.74;59.93;;
76217;Laerm;65010;50.190;18.930;2023-04-25T01:22:09;42.67;33.71;62.76;;
76217;Laerm;65010;50.190;18.930;2023-04-25T01:25:17;34.95;33.39;47.76;;
76217;Laerm;65010;50.190;18.930;2023-04-25T01:28:24;35.02;33.17;47.41;;
76217;Laerm;65010;50.190;18.930;2023-04-25T01:31:31;35.87;33.99;56.20;;
76217;Laerm;65010;50.190;18.930;2023-04-25T01:34:38;35.36;33.80;49.59;;
76217;Laerm;65010;50.190;18.930;2023-04-25T01:37:46;35.64;33.70;63.03;;
76217;Laerm;65010;50.190;18.930;2023-04-25T01:40:54;45.25;33.56;69.22;;
76217;Laerm;65010;50.190;18.930;2023-04-25T01:44:02;36.56;33.58;65.97;;
76217;Laerm;65010;50.190;18.930;2023-04-25T01:47:09;35.62;33.41;63.82;;
76217;Laerm;65010;50.190;18.930;2023-04-25T01:50:17;34.63;33.51;39.91;;
76217;Laerm;65010;50.190;18.930;2023-04-25T01:53:28;44.95;33.62;65.65;;
76217;Laerm;65010;50.190;18.930;2023-04-25T01:56:38;35.14;33.42;41.83;;
76217;Laerm;65010;50.190;18.930;2023-04-25T01:59:47;35.27;33.69;47.21;;
76217;Laerm;65010;50.190;18.930;2023-04-25T02:03:16;35.89;33.92;39.36;;
76217;Laerm;65010;50.190;18.930;2023-04-25T02:06:23;35.04;33.73;43.64;;
76217;Laerm;65010;50.190;18.930;2023-04-25T02:09:34;36.27;34.16;62.92;;
76217;Laerm;65010;50.190;18.930;2023-04-25T02:12:42;36.17;34.36;57.91;;
76217;Laerm;65010;50.190;18.930;2023-04-25T02:16:06;38.73;34.33;70.80;;
76217;Laerm;65010;50.190;18.930;2023-04-25T02:19:14;39.67;33.68;66.52;;
76217;Laerm;65010;50.190;18.930;2023-04-25T02:22:22;39.81;33.94;65.63;;
76217;Laerm;65010;50.190;18.930;2023-04-25T02:25:32;38.71;34.00;66.16;;
76217;Laerm;65010;50.190;18.930;2023-04-25T02:28:38;40.89;34.83;67.73;;
76217;Laerm;65010;50.190;18.930;2023-04-25T02:31:44;41.71;34.64;67.73;;
76217;Laerm;65010;50.190;18.930;2023-04-25T02:34:52;41.99;34.77;64.82;;
76217;Laerm;65010;50.190;18.930;2023-04-25T02:37:58;42.78;34.32;63.52;;
76217;Laerm;65010;50.190;18.930;2023-04-25T02:41:07;47.48;34.27;67.23;;
76217;Laerm;65010;50.190;18.930;2023-04-25T02:44:13;42.97;34.31;67.28;;
76217;Laerm;65010;50.190;18.930;2023-04-25T02:47:20;43.57;33.94;55.34;;
76217;Laerm;65010;50.190;18.930;2023-04-25T02:50:27;44.06;34.53;56.79;;
76217;Laerm;65010;50.190;18.930;2023-04-25T02:53:32;44.97;34.59;56.20;;
76217;Laerm;65010;50.190;18.930;2023-04-25T02:56:42;43.51;34.03;54.72;;
76217;Laerm;65010;50.190;18.930;2023-04-25T02:59:53;40.78;34.35;64.31;;
76217;Laerm;65010;50.190;18.930;2023-04-25T03:03:00;40.33;34.25;56.20;;
76217;Laerm;65010;50.190;18.930;2023-04-25T03:06:06;35.79;34.28;41.50;;
76217;Laerm;65010;50.190;18.930;2023-04-25T03:09:13;37.17;34.25;62.17;;
76217;Laerm;65010;50.190;18.930;2023-04-25T03:12:24;40.68;34.16;55.47;;
76217;Laerm;65010;50.190;18.930;2023-04-25T03:15:30;42.34;33.95;64.08;;
76217;Laerm;65010;50.190;18.930;2023-04-25T03:18:36;44.39;34.22;64.11;;
76217;Laerm;65010;50.190;18.930;2023-04-25T03:21:44;41.72;34.12;59.76;;
76217;Laerm;65010;50.190;18.930;2023-04-25T03:24:50;44.02;34.13;62.50;;
76217;Laerm;65010;50.190;18.930;2023-04-25T03:27:59;42.36;34.37;62.44;;
76217;Laerm;65010;50.190;18.930;2023-04-25T03:31:05;36.69;34.52;46.68;;
76217;Laerm;65010;50.190;18.930;2023-04-25T03:34:12;45.71;34.57;63.37;;
76217;Laerm;65010;50.190;18.930;2023-04-25T03:37:19;43.91;34.50;62.56;;
76217;Laerm;65010;50.190;18.930;2023-04-25T03:40:25;41.70;34.68;61.02;;
76217;Laerm;65010;50.190;18.930;2023-04-25T03:43:45;42.48;34.39;62.97;;
76217;Laerm;65010;50.190;18.930;2023-04-25T03:46:52;43.08;34.59;60.90;;
76217;Laerm;65010;50.190;18.930;2023-04-25T03:50:00;36.25;34.49;47.51;;
76217;Laerm;65010;50.190;18.930;2023-04-25T03:53:06;46.92;34.45;67.25;;
76217;Laerm;65010;50.190;18.930;2023-04-25T03:56:32;44.35;34.34;66.55;;
76217;Laerm;65010;50.190;18.930;2023-04-25T03:59:51;45.16;34.45;64.46;;
76217;Laerm;65010;50.190;18.930;2023-04-25T04:02:57;44.32;34.32;64.33;;
76217;Laerm;65010;50.190;18.930;2023-04-25T04:06:05;46.60;34.51;67.66;;
76217;Laerm;65010;50.190;18.930;2023-04-25T04:09:15;39.73;34.61;56.87;;
76217;Laerm;65010;50.190;18.930;2023-04-25T04:12:23;46.65;34.73;65.61;;
76217;Laerm;65010;50.190;18.930;2023-04-25T04:15:31;45.29;36.49;61.92;;
76217;Laerm;65010;50.190;18.930;2023-04-25T04:18:39;46.19;36.03;64.21;;
76217;Laerm;65010;50.190;18.930;2023-04-25T04:21:44;47.66;36.21;64.80;;
76217;Laerm;65010;50.190;18.930;2023-04-25T04:24:52;47.28;36.47;66.09;;
76217;Laerm;65010;50.190;18.930;2023-04-25T04:28:25;45.85;36.75;63.82;;
76217;Laerm;65010;50.190;18.930;2023-04-25T04:32:08;48.67;37.95;64.32;;
76217;Laerm;65010;50.190;18.930;2023-04-25T04:35:14;50.13;36.80;67.07;;
76217;Laerm;65010;50.190;18.930;2023-04-25T04:38:21;49.95;36.75;65.73;;
76217;Laerm;65010;50.190;18.930;2023-04-25T04:41:31;45.65;36.77;65.15;;
76217;Laerm;65010;50.190;18.930;2023-04-25T04:44:47;46.91;36.39;62.99;;
76217;Laerm;65010;50.190;18.930;2023-04-25T04:48:04;51.66;36.54;65.25;;
76217;Laerm;65010;50.190;18.930;2023-04-25T04:51:23;48.86;36.23;67.09;;
76217;Laerm;65010;50.190;18.930;2023-04-25T04:54:29;50.64;36.69;65.62;;
76217;Laerm;65010;50.190;18.930;2023-04-25T04:58:10;50.90;37.31;67.46;;
76217;Laerm;65010;50.190;18.930;2023-04-25T05:01:28;52.09;36.58;65.30;;
76217;Laerm;65010;50.190;18.930;2023-04-25T05:04:56;54.26;35.05;67.08;;
76217;Laerm;65010;50.190;18.930;2023-04-25T05:08:22;53.82;35.32;68.30;;
76217;Laerm;65010;50.190;18.930;2023-04-25T05:11:47;50.57;35.04;66.16;;
76217;Laerm;65010;50.190;18.930;2023-04-25T05:15:13;50.00;35.44;64.90;;
76217;Laerm;65010;50.190;18.930;2023-04-25T05:18:49;47.83;37.33;63.50;;
76217;Laerm;65010;50.190;18.930;2023-04-25T05:22:20;45.95;36.48;64.93;;
76217;Laerm;65010;50.190;18.930;2023-04-25T05:25:36;48.05;36.42;67.06;;
76217;Laerm;65010;50.190;18.930;2023-04-25T05:29:01;47.45;36.60;66.44;;
76217;Laerm;65010;50.190;18.930;2023-04-25T05:32:35;51.54;37.71;67.64;;
76217;Laerm;65010;50.190;18.930;2023-04-25T05:35:41;44.15;34.85;64.39;;
76217;Laerm;65010;50.190;18.930;2023-04-25T05:38:50;50.42;35.15;66.74;;
76217;Laerm;65010;50.190;18.930;2023-04-25T05:41:56;49.75;34.79;65.69;;
76217;Laerm;65010;50.190;18.930;2023-04-25T05:45:21;49.45;35.11;69.33;;
76217;Laerm;65010;50.190;18.930;2023-04-25T05:48:47;50.09;34.91;64.47;;
76217;Laerm;65010;50.190;18.930;2023-04-25T05:52:12;50.94;34.93;63.36;;
76217;Laerm;65010;50.190;18.930;2023-04-25T05:55:26;50.70;35.17;66.10;;
76217;Laerm;65010;50.190;18.930;2023-04-25T05:58:34;51.04;35.30;64.26;;
76217;Laerm;65010;50.190;18.930;2023-04-25T06:01:41;47.70;34.65;65.19;;
76217;Laerm;65010;50.190;18.930;2023-04-25T06:04:50;47.36;34.71;61.89;;
76217;Laerm;65010;50.190;18.930;2023-04-25T06:07:57;43.04;34.96;62.18;;
76217;Laerm;65010;50.190;18.930;2023-04-25T06:11:07;47.37;35.23;65.31;;
76217;Laerm;65010;50.190;18.930;2023-04-25T06:14:12;50.86;34.90;66.22;;
76217;Laerm;65010;50.190;18.930;2023-04-25T06:17:23;46.76;34.68;61.61;;
76217;Laerm;65010;50.190;18.930;2023-04-25T06:20:29;48.07;34.99;64.78;;
76217;Laerm;65010;50.190;18.930;2023-04-25T06:23:36;49.28;35.00;65.15;;
76217;Laerm;65010;50.190;18.930;2023-04-25T06:26:48;46.76;34.24;63.88;;
76217;Laerm;65010;50.190;18.930;2023-04-25T06:29:56;46.71;34.91;61.46;;
76217;Laerm;65010;50.190;18.930;2023-04-25T06:33:02;46.37;34.69;66.08;;
76217;Laerm;65010;50.190;18.930;2023-04-25T06:36:09;48.05;35.39;62.38;;
76217;Laerm;65010;50.190;18.930;2023-04-25T06:39:16;45.77;35.09;63.00;;
76217;Laerm;65010;50.190;18.930;2023-04-25T06:42:27;48.11;34.50;65.09;;
76217;Laerm;65010;50.190;18.930;2023-04-25T06:45:34;48.60;34.68;64.43;;
76217;Laerm;65010;50.190;18.930;2023-04-25T06:48:43;47.71;35.03;64.79;;
76217;Laerm;65010;50.190;18.930;2023-04-25T06:51:49;48.42;35.20;62.90;;
76217;Laerm;65010;50.190;18.930;2023-04-25T06:54:56;43.42;35.09;60.70;;
76217;Laerm;65010;50.190;18.930;2023-04-25T06:58:16;44.96;34.82;65.28;;
76217;Laerm;65010;50.190;18.930;2023-04-25T07:01:43;46.37;35.25;65.75;;
76217;Laerm;65010;50.190;18.930;2023-04-25T07:04:53;40.87;34.52;60.42;;
76217;Laerm;65010;50.190;18.930;2023-04-25T07:08:03;42.74;34.74;64.51;;
76217;Laerm;65010;50.190;18.930;2023-04-25T07:11:09;44.30;35.09;63.41;;
76217;Laerm;65010;50.190;18.930;2023-04-25T07:14:19;41.27;34.43;58.77;;
76217;Laerm;65010;50.190;18.930;2023-04-25T07:17:25;39.63;34.29;57.55;;
76217;Laerm;65010;50.190;18.930;2023-04-25T07:20:32;49.39;34.27;67.14;;
76217;Laerm;65010;50.190;18.930;2023-04-25T07:23:38;49.40;34.58;65.49;;
76217;Laerm;65010;50.190;18.930;2023-04-25T07:26:50;45.43;34.40;61.71;;
76217;Laerm;65010;50.190;18.930;2023-04-25T07:30:15;45.84;35.15;60.37;;
76217;Laerm;65010;50.190;18.930;2023-04-25T07:33:22;47.49;35.13;66.40;;
76217;Laerm;65010;50.190;18.930;2023-04-25T07:36:28;47.59;35.45;67.79;;
76217;Laerm;65010;50.190;18.930;2023-04-25T07:39:34;48.16;35.39;64.44;;
76217;Laerm;65010;50.190;18.930;2023-04-25T07:42:41;46.38;35.34;66.34;;
76217;Laerm;65010;50.190;18.930;2023-04-25T07:45:54;46.07;34.42;63.76;;
76217;Laerm;65010;50.190;18.930;2023-04-25T07:49:02;45.40;34.41;66.49;;
76217;Laerm;65010;50.190;18.930;2023-04-25T07:52:09;48.94;35.17;65.41;;
76217;Laerm;65010;50.190;18.930;2023-04-25T07:55:21;40.26;35.36;55.97;;
76217;Laerm;65010;50.190;18.930;2023-04-25T07:58:48;45.66;34.56;62.71;;
76217;Laerm;65010;50.190;18.930;2023-04-25T08:01:57;45.13;34.53;65.41;;
76217;Laerm;65010;50.190;18.930;2023-04-25T08:05:05;42.23;34.74;61.85;;
76217;Laerm;65010;50.190;18.930;2023-04-25T08:08:16;43.13;35.19;64.61;;
76217;Laerm;65010;50.190;18.930;2023-04-25T08:11:24;46.91;34.62;62.93;;
76217;Laerm;65010;50.190;18.930;2023-04-25T08:14:30;44.35;34.65;65.61;;
76217;Laerm;65010;50.190;18.930;2023-04-25T08:17:43;46.34;35.00;63.39;;
76217;Laerm;65010;50.190;18.930;2023-04-25T08:20:49;40.27;34.48;55.76;;
76217;Laerm;65010;50.190;18.930;2023-04-25T08:23:56;47.65;34.86;65.20;;
76217;Laerm;65010;50.190;18.930;2023-04-25T08:27:06;46.89;34.79;64.38;;
76217;Laerm;65010;50.190;18.930;2023-04-25T08:30:13;49.54;35.03;63.18;;
76217;Laerm;65010;50.190;18.930;2023-04-25T08:33:23;46.98;34.64;61.01;;
76217;Laerm;65010;50.190;18.930;2023-04-25T08:36:44;45.98;34.80;63.48;;
76217;Laerm;65010;50.190;18.930;2023-04-25T08:40:14;43.72;34.50;60.95;;
76217;Laerm;65010;50.190;18.930;2023-04-25T08:43:31;45.74;34.72;63.81;;
76217;Laerm;65010;50.190;18.930;2023-04-25T08:46:39;42.81;34.48;60.85;;
76217;Laerm;65010;50.190;18.930;2023-04-25T08:50:04;46.79;34.69;65.87;;
76217;Laerm;65010;50.190;18.930;2023-04-25T08:53:12;48.28;34.99;64.17;;
76217;Laerm;65010;50.190;18.930;2023-04-25T08:56:23;42.90;34.15;62.42;;
76217;Laerm;65010;50.190;18.930;2023-04-25T08:59:32;44.45;34.94;59.89;;
76217;Laerm;65010;50.190;18.930;2023-04-25T09:02:43;44.10;34.51;62.94;;
76217;Laerm;65010;50.190;18.930;2023-04-25T09:05:52;45.98;34.81;63.84;;
76217;Laerm;65010;50.190;18.930;2023-04-25T09:09:03;40.55;34.22;58.61;;
76217;Laerm;65010;50.190;18.930;2023-04-25T09:12:10;45.77;34.21;63.39;;
76217;Laerm;65010;50.190;18.930;2023-04-25T09:15:17;37.02;34.12;57.30;;
76217;Laerm;65010;50.190;18.930;2023-04-25T09:18:47;47.91;34.50;64.29;;
76217;Laerm;65010;50.190;18.930;2023-04-25T09:21:59;41.35;34.06;61.07;;
76217;Laerm;65010;50.190;18.930;2023-04-25T09:25:10;44.91;34.13;65.72;;
76217;Laerm;65010;50.190;18.930;2023-04-25T09:28:25;46.31;34.71;61.37;;
76217;Laerm;65010;50.190;18.930;2023-04-25T09:31:35;46.64;34.00;65.59;;
76217;Laerm;65010;50.190;18.930;2023-04-25T09:34:46;42.98;34.26;59.37;;
76217;Laerm;65010;50.190;18.930;2023-04-25T09:37:57;47.45;34.36;64.77;;
76217;Laerm;65010;50.190;18.930;2023-04-25T09:41:30;43.85;34.21;61.42;;
76217;Laerm;65010;50.190;18.930;2023-04-25T09:44:37;47.23;34.20;65.28;;
76217;Laerm;65010;50.190;18.930;2023-04-25T09:47:48;45.47;34.24;61.57;;
76217;Laerm;65010;50.190;18.930;2023-04-25T09:51:08;43.25;34.50;69.86;;
76217;Laerm;65010;50.190;18.930;2023-04-25T09:54:17;45.49;34.34;60.64;;
76217;Laerm;65010;50.190;18.930;2023-04-25T09:57:26;46.65;33.94;63.78;;
76217;Laerm;65010;50.190;18.930;2023-04-25T10:00:34;44.28;34.24;60.18;;
76217;Laerm;65010;50.190;18.930;2023-04-25T10:03:57;46.06;34.20;60.88;;
76217;Laerm;65010;50.190;18.930;2023-04-25T10:07:19;46.85;34.49;62.22;;
76217;Laerm;65010;50.190;18.930;2023-04-25T10:10:32;46.85;34.12;63.73;;
76217;Laerm;65010;50.190;18.930;2023-04-25T10:13:43;47.08;35.35;63.83;;
76217;Laerm;65010;50.190;18.930;2023-04-25T10:16:51;42.52;34.72;63.36;;
76217;Laerm;65010;50.190;18.930;2023-04-25T10:20:02;47.99;34.60;64.31;;
76217;Laerm;65010;50.190;18.930;2023-04-25T10:23:14;47.15;34.30;69.51;;
76217;Laerm;65010;50.190;18.930;2023-04-25T10:26:25;48.65;34.55;65.99;;
76217;Laerm;65010;50.190;18.930;2023-04-25T10:29:32;46.31;34.44;65.61;;
76217;Laerm;65010;50.190;18.930;2023-04-25T10:32:39;46.33;34.47;62.83;;
76217;Laerm;65010;50.190;18.930;2023-04-25T10:35:45;47.35;34.83;61.88;;
76217;Laerm;65010;50.190;18.930;2023-04-25T10:38:53;41.25;35.62;58.43;;
76217;Laerm;65010;50.190;18.930;2023-04-25T10:42:03;47.96;34.96;63.39;;
76217;Laerm;65010;50.190;18.930;2023-04-25T10:45:11;45.49;34.86;64.93;;
76217;Laerm;65010;50.190;18.930;2023-04-25T10:48:28;47.66;35.04;65.51;;
76217;Laerm;65010;50.190;18.930;2023-04-25T10:51:36;47.39;34.69;64.20;;
76217;Laerm;65010;50.190;18.930;2023-04-25T10:54:58;42.26;35.16;58.45;;
76217;Laerm;65010;50.190;18.930;2023-04-25T10:58:07;47.06;35.00;61.17;;
76217;Laerm;65010;50.190;18.930;2023-04-25T11:01:13;46.76;35.21;62.36;;
76217;Laerm;65010;50.190;18.930;2023-04-25T11:04:21;45.91;35.21;62.11;;
76217;Laerm;65010;50.190;18.930;2023-04-25T11:07:38;48.53;34.61;66.04;;
76217;Laerm;65010;50.190;18.930;2023-04-25T11:10:47;43.15;35.14;63.12;;
76217;Laerm;65010;50.190;18.930;2023-04-25T11:13:56;47.48;35.03;66.42;;
76217;Laerm;65010;50.190;18.930;2023-04-25T11:17:03;44.68;34.97;61.10;;
76217;Laerm;65010;50.190;18.930;2023-04-25T11:20:09;49.38;35.42;65.98;;
76217;Laerm;65010;50.190;18.930;2023-04-25T11:23:19;46.21;35.61;64.48;;
76217;Laerm;65010;50.190;18.930;2023-04-25T11:26:25;47.04;34.94;64.91;;
76217;Laerm;65010;50.190;18.930;2023-04-25T11:29:35;45.78;34.87;62.14;;
76217;Laerm;65010;50.190;18.930;2023-04-25T11:32:41;47.53;34.89;67.87;;
76217;Laerm;65010;50.190;18.930;2023-04-25T11:35:49;47.53;34.81;63.58;;
76217;Laerm;65010;50.190;18.930;2023-04-25T11:38:54;45.67;34.87;64.96;;
76217;Laerm;65010;50.190;18.930;2023-04-25T11:42:01;43.12;34.88;58.33;;
76217;Laerm;65010;50.190;18.930;2023-04-25T11:45:18;48.46;35.25;64.00;;
76217;Laerm;65010;50.190;18.930;2023-04-25T11:48:25;45.05;34.25;63.53;;
76217;Laerm;65010;50.190;18.930;2023-04-25T11:51:38;43.27;34.32;60.66;;
76217;Laerm;65010;50.190;18.930;2023-04-25T11:54:46;44.02;34.60;64.68;;
76217;Laerm;65010;50.190;18.930;2023-04-25T11:57:52;44.92;34.69;63.78;;
76217;Laerm;65010;50.190;18.930;2023-04-25T12:01:01;47.40;34.39;65.55;;
76217;Laerm;65010;50.190;18.930;2023-04-25T12:04:12;46.70;34.51;61.78;;
76217;Laerm;65010;50.190;18.930;2023-04-25T12:07:19;46.40;34.29;61.85;;
76217;Laerm;65010;50.190;18.930;2023-04-25T12:10:25;48.20;34.78;66.10;;
76217;Laerm;65010;50.190;18.930;2023-04-25T12:13:32;47.48;34.64;61.58;;
76217;Laerm;65010;50.190;18.930;2023-04-25T12:16:46;40.55;34.41;57.80;;
76217;Laerm;65010;50.190;18.930;2023-04-25T12:19:53;56.31;34.54;73.60;;
76217;Laerm;65010;50.190;18.930;2023-04-25T12:22:59;48.60;34.05;63.57;;
76217;Laerm;65010;50.190;18.930;2023-04-25T12:26:05;53.13;34.49;73.01;;
76217;Laerm;65010;50.190;18.930;2023-04-25T12:29:16;48.74;34.66;62.35;;
76217;Laerm;65010;50.190;18.930;2023-04-25T12:32:26;49.07;34.44;68.27;;
76217;Laerm;65010;50.190;18.930;2023-04-25T12:35:32;59.07;35.40;69.91;;
76217;Laerm;65010;50.190;18.930;2023-04-25T12:38:40;55.70;45.48;75.07;;
76217;Laerm;65010;50.190;18.930;2023-04-25T12:41:46;49.90;46.43;63.00;;
76217;Laerm;65010;50.190;18.930;2023-04-25T12:44:53;55.06;35.48;69.15;;
76217;Laerm;65010;50.190;18.930;2023-04-25T12:48:02;47.04;35.23;63.78;;
76217;Laerm;65010;50.190;18.930;2023-04-25T12:51:09;47.52;34.88;64.35;;
76217;Laerm;65010;50.190;18.930;2023-04-25T12:54:14;45.39;34.34;61.18;;
76217;Laerm;65010;50.190;18.930;2023-04-25T12:57:21;46.75;33.92;65.54;;
76217;Laerm;65010;50.190;18.930;2023-04-25T13:00:26;48.51;34.58;65.05;;
76217;Laerm;65010;50.190;18.930;2023-04-25T13:03:36;46.89;34.78;63.25;;
76217;Laerm;65010;50.190;18.930;2023-04-25T13:06:43;48.22;34.45;64.92;;
76217;Laerm;65010;50.190;18.930;2023-04-25T13:09:50;50.32;34.87;64.34;;
76217;Laerm;65010;50.190;18.930;2023-04-25T13:12:56;46.33;34.78;69.68;;
76217;Laerm;65010;50.190;18.930;2023-04-25T13:16:04;47.20;34.63;63.54;;
76217;Laerm;65010;50.190;18.930;2023-04-25T13:19:13;47.48;34.89;62.74;;
76217;Laerm;65010;50.190;18.930;2023-04-25T13:22:19;47.86;34.84;64.65;;
76217;Laerm;65010;50.190;18.930;2023-04-25T13:25:25;49.75;34.93;65.44;;
76217;Laerm;65010;50.190;18.930;2023-04-25T13:28:32;50.16;34.88;68.82;;
76217;Laerm;65010;50.190;18.930;2023-04-25T13:31:37;48.51;35.18;65.01;;
76217;Laerm;65010;50.190;18.930;2023-04-25T13:34:46;47.32;34.76;63.11;;
76217;Laerm;65010;50.190;18.930;2023-04-25T13:37:52;50.08;34.78;65.57;;
76217;Laerm;65010;50.190;18.930;2023-04-25T13:40:59;47.61;34.81;61.17;;
76217;Laerm;65010;50.190;18.930;2023-04-25T13:44:04;42.02;34.90;59.82;;
76217;Laerm;65010;50.190;18.930;2023-04-25T13:47:11;46.48;36.43;66.34;;
76217;Laerm;65010;50.190;18.930;2023-04-25T13:50:20;50.36;36.80;63.74;;
76217;Laerm;65010;50.190;18.930;2023-04-25T13:53:28;50.37;36.82;66.22;;
76217;Laerm;65010;50.190;18.930;2023-04-25T13:56:34;47.39;36.88;64.12;;
76217;Laerm;65010;50.190;18.930;2023-04-25T13:59:40;47.48;36.39;62.79;;
76217;Laerm;65010;50.190;18.930;2023-04-25T14:02:46;46.22;37.42;58.69;;
76217;Laerm;65010;50.190;18.930;2023-04-25T14:05:56;47.69;34.85;62.00;;
76217;Laerm;65010;50.190;18.930;2023-04-25T14:09:02;47.65;34.82;63.23;;
76217;Laerm;65010;50.190;18.930;2023-04-25T14:12:10;50.76;34.82;64.28;;
76217;Laerm;65010;50.190;18.930;2023-04-25T14:15:16;44.52;34.85;62.92;;
76217;Laerm;65010;50.190;18.930;2023-04-25T14:18:23;47.90;34.94;63.31;;
76217;Laerm;65010;50.190;18.930;2023-04-25T14:21:31;49.43;35.37;63.90;;
76217;Laerm;65010;50.190;18.930;2023-04-25T14:24:38;49.93;34.51;64.44;;
76217;Laerm;65010;50.190;18.930;2023-04-25T14:27:44;50.61;34.75;64.59;;
76217;Laerm;65010;50.190;18.930;2023-04-25T14:30:53;48.43;34.67;69.37;;
76217;Laerm;65010;50.190;18.930;2023-04-25T14:33:59;44.95;34.88;62.39;;
76217;Laerm;65010;50.190;18.930;2023-04-25T14:37:08;42.16;35.09;62.63;;
76217;Laerm;65010;50.190;18.930;2023-04-25T14:40:16;46.08;34.70;66.42;;
76217;Laerm;65010;50.190;18.930;2023-04-25T14:43:26;46.41;34.95;69.77;;
76217;Laerm;65010;50.190;18.930;2023-04-25T14:46:33;55.46;34.53;75.93;;
76217;Laerm;65010;50.190;18.930;2023-04-25T14:49:40;48.40;34.27;68.30;;
76217;Laerm;65010;50.190;18.930;2023-04-25T14:52:48;48.16;34.32;66.80;;
76217;Laerm;65010;50.190;18.930;2023-04-25T14:55:56;48.90;34.72;61.85;;
76217;Laerm;65010;50.190;18.930;2023-04-25T14:59:01;48.06;35.04;62.71;;
76217;Laerm;65010;50.190;18.930;2023-04-25T15:02:08;46.25;34.34;63.33;;
76217;Laerm;65010;50.190;18.930;2023-04-25T15:05:14;47.64;34.19;62.69;;
76217;Laerm;65010;50.190;18.930;2023-04-25T15:08:23;46.84;33.77;66.03;;
76217;Laerm;65010;50.190;18.930;2023-04-25T15:11:29;47.96;34.15;66.54;;
76217;Laerm;65010;50.190;18.930;2023-04-25T15:14:36;45.14;34.19;61.74;;
76217;Laerm;65010;50.190;18.930;2023-04-25T15:17:42;47.82;34.35;63.88;;
76217;Laerm;65010;50.190;18.930;2023-04-25T15:20:49;47.72;34.52;63.04;;
76217;Laerm;65010;50.190;18.930;2023-04-25T15:23:58;45.21;33.81;63.26;;
76217;Laerm;65010;50.190;18.930;2023-04-25T15:27:04;48.76;34.09;64.77;;
76217;Laerm;65010;50.190;18.930;2023-04-25T15:30:13;44.99;34.27;64.28;;
76217;Laerm;65010;50.190;18.930;2023-04-25T15:33:20;47.51;35.56;62.70;;
76217;Laerm;65010;50.190;18.930;2023-04-25T15:36:25;49.04;36.10;66.62;;
76217;Laerm;65010;50.190;18.930;2023-04-25T15:39:35;46.78;36.13;69.43;;
76217;Laerm;65010;50.190;18.930;2023-04-25T15:42:43;47.77;36.64;62.43;;
76217;Laerm;65010;50.190;18.930;2023-04-25T15:45:50;47.38;37.73;64.20;;
76217;Laerm;65010;50.190;18.930;2023-04-25T15:48:56;42.79;36.56;62.52;;
76217;Laerm;65010;50.190;18.930;2023-04-25T15:52:05;48.94;36.19;65.64;;
76217;Laerm;65010;50.190;18.930;2023-04-25T15:55:17;46.93;36.25;64.12;;
76217;Laerm;65010;50.190;18.930;2023-04-25T15:58:24;48.16;36.19;65.62;;
76217;Laerm;65010;50.190;18.930;2023-04-25T16:01:30;48.97;36.43;66.71;;
76217;Laerm;65010;50.190;18.930;2023-04-25T16:04:37;48.57;36.29;62.20;;
76217;Laerm;65010;50.190;18.930;2023-04-25T16:07:44;45.90;36.36;62.16;;
76217;Laerm;65010;50.190;18.930;2023-04-25T16:10:54;44.02;36.52;63.38;;
76217;Laerm;65010;50.190;18.930;2023-04-25T16:14:01;46.50;36.30;62.49;;
76217;Laerm;65010;50.190;18.930;2023-04-25T16:17:07;48.41;36.36;64.47;;
76217;Laerm;65010;50.190;18.930;2023-04-25T16:20:14;52.92;34.69;75.27;;
76217;Laerm;65010;50.190;18.930;2023-04-25T16:23:20;46.16;34.94;65.19;;
76217;Laerm;65010;50.190;18.930;2023-04-25T16:26:30;47.56;34.71;65.69;;
76217;Laerm;65010;50.190;18.930;2023-04-25T16:29:38;45.30;34.59;60.95;;
76217;Laerm;65010;50.190;18.930;2023-04-25T16:32:44;48.67;36.44;65.61;;
76217;Laerm;65010;50.190;18.930;2023-04-25T16:35:51;45.93;36.99;61.61;;
76217;Laerm;65010;50.190;18.930;2023-04-25T16:38:57;46.72;35.01;64.71;;
76217;Laerm;65010;50.190;18.930;2023-04-25T16:42:06;47.85;34.81;64.54;;
76217;Laerm;65010;50.190;18.930;2023-04-25T16:45:13;48.77;35.12;66.08;;
76217;Laerm;65010;50.190;18.930;2023-04-25T16:48:22;43.72;34.72;60.98;;
76217;Laerm;65010;50.190;18.930;2023-04-25T16:51:28;49.15;34.94;64.85;;
76217;Laerm;65010;50.190;18.930;2023-04-25T16:54:36;49.91;35.01;63.79;;
76217;Laerm;65010;50.190;18.930;2023-04-25T16:57:44;46.11;35.10;60.86;;
76217;Laerm;65010;50.190;18.930;2023-04-25T17:00:51;49.08;34.99;63.63;;
76217;Laerm;65010;50.190;18.930;2023-04-25T17:04:02;36.58;34.13;48.75;;
76217;Laerm;65010;50.190;18.930;2023-04-25T17:07:11;42.79;34.39;60.21;;
76217;Laerm;65010;50.190;18.930;2023-04-25T17:10:17;48.49;34.74;62.08;;
76217;Laerm;65010;50.190;18.930;2023-04-25T17:13:27;49.00;34.90;63.79;;
76217;Laerm;65010;50.190;18.930;2023-04-25T17:16:35;47.30;34.90;64.24;;
76217;Laerm;65010;50.190;18.930;2023-04-25T17:19:43;46.25;34.62;60.09;;
76217;Laerm;65010;50.190;18.930;2023-04-25T17:22:48;43.98;34.26;61.93;;
76217;Laerm;65010;50.190;18.930;2023-04-25T17:25:57;47.40;34.67;66.62;;